createdAt,value
2019-06-07T00:00:40.503Z,18.73
2019-06-07T00:03:23.975Z,12.83
2019-06-07T00:05:46.619Z,18.43
2019-06-07T00:08:24.947Z,13.53
2019-06-07T00:10:53.971Z,15.07
2019-06-07T00:13:25.023Z,18.33
2019-06-07T00:15:56.082Z,13.60
2019-06-07T00:18:26.346Z,15.30
2019-06-07T00:20:58.463Z,16.50
2019-06-07T00:23:30.112Z,19.90
2019-06-07T00:26:00.966Z,15.27
2019-06-07T00:28:35.280Z,14.37
2019-06-07T00:31:11.394Z,13.73
2019-06-07T00:33:44.538Z,17.10
2019-06-07T00:36:20.707Z,13.87
2019-06-07T00:38:53.647Z,12.20
2019-06-07T00:41:23.614Z,16.37
2019-06-07T00:44:00.086Z,8.83
2019-06-07T00:46:45.878Z,13.80
2019-06-07T00:49:34.876Z,13.30
2019-06-07T00:51:53.831Z,15.67
2019-06-07T00:54:25.314Z,12.10
2019-06-07T00:57:02.586Z,17.80
2019-06-07T00:59:36.451Z,11.23
2019-06-07T01:02:06.913Z,12.07
2019-06-07T01:04:38.517Z,14.63
2019-06-07T01:07:08.986Z,13.73
2019-06-07T01:09:53.565Z,12.47
2019-06-07T01:12:26.652Z,13.87
2019-06-07T01:15:01.048Z,12.83
2019-06-07T01:17:49.987Z,11.23
2019-06-07T01:20:22.787Z,15.40
2019-06-07T01:22:55.367Z,14.20
2019-06-07T01:25:34.211Z,12.53
2019-06-07T01:28:04.982Z,12.30
2019-06-07T01:30:36.677Z,11.43
2019-06-07T01:33:10.645Z,15.73
2019-06-07T01:35:43.937Z,10.60
2019-06-07T01:38:13.973Z,13.30
2019-06-07T01:40:44.739Z,14.23
2019-06-07T01:43:31.006Z,10.53
2019-06-07T01:46:16.074Z,10.80
2019-06-07T01:48:54.067Z,10.73
2019-06-07T01:51:27.918Z,6.73
2019-06-07T01:54:48.836Z,7.97
2019-06-07T01:56:37.024Z,13.90
2019-06-07T01:59:13.456Z,11.67
2019-06-07T02:01:44.135Z,10.03
2019-06-07T02:04:21.581Z,9.37
2019-06-07T02:06:55.209Z,12.30
2019-06-07T02:09:31.566Z,10.70
2019-06-07T02:11:59.890Z,8.40
2019-06-07T02:14:39.160Z,12.93
2019-06-07T02:17:30.934Z,9.00
2019-06-07T02:20:05.319Z,12.73
2019-06-07T02:22:46.861Z,14.07
2019-06-07T02:25:48.713Z,8.30
2019-06-07T02:28:26.742Z,14.17
2019-06-07T02:30:44.930Z,10.23
2019-06-07T02:33:08.316Z,10.13
2019-06-07T02:35:40.922Z,16.87
2019-06-07T02:38:17.160Z,10.13
2019-06-07T02:40:48.025Z,10.70
2019-06-07T02:43:36.250Z,11.23
2019-06-07T02:46:25.130Z,16.20
2019-06-07T02:48:40.631Z,11.20
2019-06-07T02:51:12.776Z,9.80
2019-06-07T02:53:45.416Z,9.93
2019-06-07T02:58:48.204Z,11.83
2019-06-07T03:01:22.464Z,11.37
2019-06-07T03:03:53.556Z,11.63
2019-06-07T03:06:29.662Z,16.83
2019-06-07T03:08:57.666Z,13.67
2019-06-07T03:11:32.330Z,12.97
2019-06-07T03:14:04.092Z,13.27
2019-06-07T03:16:46.306Z,16.70
2019-06-07T03:19:37.297Z,15.17
2019-06-07T03:22:17.685Z,14.80
2019-06-07T03:31:20.952Z,12.97
2019-06-07T03:33:50.764Z,12.23
2019-06-07T03:36:32.138Z,11.03
2019-06-07T03:39:02.043Z,10.20
2019-06-07T03:41:49.915Z,14.53
2019-06-07T03:44:16.065Z,13.20
2019-06-07T03:46:48.134Z,17.40
2019-06-07T03:49:20.841Z,19.23
2019-06-07T03:51:53.997Z,11.63
2019-06-07T03:54:27.256Z,14.33
2019-06-07T03:56:57.065Z,14.70
2019-06-07T03:59:36.212Z,13.70
2019-06-07T04:02:12.896Z,14.27
2019-06-07T04:04:42.881Z,14.07
2019-06-07T04:07:12.748Z,15.83
2019-06-07T04:09:51.773Z,14.40
2019-06-07T04:12:23.124Z,14.37
2019-06-07T04:14:56.784Z,19.90
2019-06-07T04:17:33.776Z,11.07
2019-06-07T04:20:07.141Z,16.50
2019-06-07T04:22:40.490Z,13.07
2019-06-07T04:25:22.126Z,14.57
2019-06-07T04:27:56.019Z,16.00
2019-06-07T04:31:04.509Z,14.73
2019-06-07T04:33:39.752Z,16.93
2019-06-07T04:36:08.784Z,17.23
2019-06-07T04:38:42.944Z,16.63
2019-06-07T04:41:15.359Z,16.53
2019-06-07T04:43:49.343Z,17.60
2019-06-07T04:46:25.372Z,13.13
2019-06-07T04:48:58.709Z,21.27
2019-06-07T04:51:31.939Z,15.33
2019-06-07T04:54:03.562Z,17.70
2019-06-07T04:56:43.764Z,17.37
2019-06-07T04:59:10.059Z,19.00
2019-06-07T05:01:42.631Z,15.20
2019-06-07T05:04:11.474Z,15.30
2019-06-07T05:06:44.762Z,21.27
2019-06-07T05:09:14.282Z,18.37
2019-06-07T05:11:45.031Z,15.27
2019-06-07T05:14:14.826Z,17.87
2019-06-07T05:16:44.917Z,16.97
2019-06-07T05:19:14.612Z,17.30
2019-06-07T05:22:02.456Z,14.37
2019-06-07T05:24:17.220Z,14.03
2019-06-07T05:26:47.539Z,15.63
2019-06-07T05:29:17.754Z,17.47
2019-06-07T05:31:50.676Z,13.53
2019-06-07T05:34:20.427Z,11.33
2019-06-07T05:37:11.177Z,15.90
2019-06-07T05:39:26.168Z,19.53
2019-06-07T05:42:01.911Z,21.20
2019-06-07T05:44:32.226Z,16.43
2019-06-07T05:47:02.066Z,14.43
2019-06-07T05:49:32.932Z,21.83
2019-06-07T05:52:04.201Z,16.57
2019-06-07T05:54:35.131Z,12.43
2019-06-07T05:57:06.143Z,17.03
2019-06-07T05:59:38.298Z,15.93
2019-06-07T06:02:21.821Z,16.00
2019-06-07T06:04:45.832Z,16.70
2019-06-07T06:07:12.432Z,13.93
2019-06-07T06:09:43.194Z,12.23
2019-06-07T06:12:33.405Z,11.03
2019-06-07T06:14:47.082Z,16.70
2019-06-07T06:17:17.347Z,13.07
2019-06-07T06:19:52.403Z,15.17
2019-06-07T06:22:18.502Z,11.93
2019-06-07T06:25:28.821Z,13.77
2019-06-07T06:28:02.553Z,11.17
2019-06-07T06:29:52.472Z,13.90
2019-06-07T06:34:55.972Z,13.03
2019-06-07T06:37:25.587Z,14.17
2019-06-07T06:39:56.662Z,18.13
2019-06-07T06:42:26.291Z,11.67
2019-06-07T06:44:56.039Z,11.97
2019-06-07T06:47:25.813Z,12.23
2019-06-07T06:49:55.708Z,11.03
2019-06-07T06:52:26.179Z,12.00
2019-06-07T06:55:00.778Z,14.13
2019-06-07T06:57:27.827Z,13.07
2019-06-07T06:59:59.399Z,11.63
2019-06-07T07:02:31.459Z,14.87
2019-06-07T07:05:01.406Z,14.83
2019-06-07T07:07:31.621Z,9.63
2019-06-07T07:10:03.172Z,13.67
2019-06-07T07:12:33.422Z,14.17
2019-06-07T07:15:03.997Z,16.10
2019-06-07T07:17:50.472Z,11.43
2019-06-07T07:20:08.814Z,14.13
2019-06-07T07:22:39.790Z,9.43
2019-06-07T07:25:10.160Z,11.87
2019-06-07T07:27:40.602Z,14.37
2019-06-07T07:30:36.263Z,11.97
2019-06-07T07:32:45.560Z,14.63
2019-06-07T07:35:13.737Z,11.93
2019-06-07T07:37:43.746Z,15.77
2019-06-07T07:40:56.302Z,7.53
2019-06-07T07:42:47.547Z,13.17
2019-06-07T07:45:17.521Z,12.93
2019-06-07T07:48:03.428Z,11.47
2019-06-07T07:50:18.816Z,18.67
2019-06-07T07:52:53.464Z,10.83
2019-06-07T07:55:19.970Z,15.23
2019-06-07T07:57:58.076Z,14.40
2019-06-07T08:00:50.377Z,11.93
2019-06-07T08:02:58.702Z,8.77
2019-06-07T08:05:41.964Z,13.10
2019-06-07T08:08:01.621Z,7.17
2019-06-07T08:10:28.719Z,9.47
2019-06-07T08:13:22.124Z,8.73
2019-06-07T08:15:29.922Z,18.87
2019-06-07T08:18:03.855Z,10.60
2019-06-07T08:20:30.675Z,10.63
2019-06-07T08:23:01.323Z,6.10
2019-06-07T08:25:31.264Z,11.17
2019-06-07T08:28:01.186Z,7.83
2019-06-07T08:30:50.500Z,11.13
2019-06-07T08:33:24.807Z,11.00
2019-06-07T08:38:24.128Z,6.10
2019-06-07T08:40:37.869Z,8.40
2019-06-07T08:43:19.629Z,5.93
2019-06-07T08:45:39.886Z,7.83
2019-06-07T08:48:27.026Z,9.27
2019-06-07T08:50:40.850Z,6.63
2019-06-07T08:53:12.097Z,8.20
2019-06-07T08:55:42.064Z,8.23
2019-06-07T08:58:13.393Z,7.93
2019-06-07T09:00:47.996Z,8.40
2019-06-07T09:03:19.629Z,5.87
2019-06-07T09:05:53.416Z,9.57
2019-06-07T09:08:29.802Z,7.03
2019-06-07T09:10:59.537Z,6.70
2019-06-07T09:13:29.544Z,6.93
2019-06-07T09:16:04.863Z,10.50
2019-06-07T09:18:43.180Z,7.83
2019-06-07T09:21:09.054Z,6.73
2019-06-07T09:23:37.359Z,11.00
2019-06-07T09:26:18.296Z,6.53
2019-06-07T09:28:43.216Z,6.30
2019-06-07T09:31:13.189Z,7.33
2019-06-07T09:33:43.466Z,8.37
2019-06-07T09:36:13.735Z,5.93
2019-06-07T09:38:44.830Z,7.77
2019-06-07T09:41:14.838Z,11.63
2019-06-07T09:44:09.948Z,5.90
2019-06-07T09:46:18.451Z,5.47
2019-06-07T09:51:21.799Z,7.63
2019-06-07T09:53:52.949Z,4.87
2019-06-07T09:56:23.945Z,8.00
2019-06-07T09:58:54.450Z,4.90
2019-06-07T10:01:25.079Z,6.17
2019-06-07T10:03:54.911Z,7.97
2019-06-07T10:06:25.725Z,8.07
2019-06-07T10:11:29.199Z,6.87
2019-06-07T10:14:02.406Z,6.53
2019-06-07T10:16:45.963Z,6.80
2019-06-07T10:19:05.637Z,5.93
2019-06-07T10:21:35.733Z,7.47
2019-06-07T10:24:05.616Z,5.60
2019-06-07T10:26:37.747Z,8.73
2019-06-07T10:29:09.086Z,7.53
2019-06-07T10:31:40.491Z,7.03
2019-06-07T10:34:10.866Z,16.30
2019-06-07T10:36:42.684Z,5.30
2019-06-07T10:39:13.396Z,9.03
2019-06-07T10:41:43.357Z,6.03
2019-06-07T10:44:13.220Z,8.30
2019-06-07T10:46:43.038Z,10.20
2019-06-07T10:49:13.942Z,6.53
2019-06-07T10:51:45.622Z,3.60
2019-06-07T10:54:27.878Z,3.30
2019-06-07T10:56:48.402Z,6.73
2019-06-07T10:59:20.406Z,5.17
2019-06-07T11:01:51.013Z,5.37
2019-06-07T11:04:21.898Z,7.83
2019-06-07T11:06:51.656Z,5.77
2019-06-07T11:09:21.314Z,5.23
2019-06-07T11:11:51.006Z,6.97
2019-06-07T11:14:21.343Z,8.60
2019-06-07T11:16:52.620Z,6.73
2019-06-07T11:19:22.219Z,3.70
2019-06-07T11:21:52.944Z,2.03
2019-06-07T11:24:24.742Z,3.27
2019-06-07T11:26:56.130Z,4.60
2019-06-07T11:29:26.016Z,3.70
2019-06-07T11:31:55.691Z,5.20
2019-06-07T11:34:29.113Z,4.17
2019-06-07T11:36:59.839Z,4.67
2019-06-07T11:39:29.669Z,5.87
2019-06-07T11:42:00.135Z,4.53
2019-06-07T11:44:29.777Z,5.60
2019-06-07T11:47:01.402Z,6.97
2019-06-07T11:49:32.776Z,5.10
2019-06-07T11:52:03.583Z,5.83
2019-06-07T11:54:34.105Z,5.73
2019-06-07T11:57:05.109Z,5.17
2019-06-07T11:59:34.744Z,4.23
2019-06-07T12:02:07.107Z,6.37
2019-06-07T12:04:36.754Z,4.73
2019-06-07T12:07:10.171Z,6.20
2019-06-07T12:09:38.089Z,15.47
2019-06-07T12:12:10.342Z,12.20
2019-06-07T12:14:40.454Z,5.17
2019-06-07T12:17:11.256Z,3.87
2019-06-07T12:19:43.434Z,5.03
2019-06-07T12:22:14.216Z,4.30
2019-06-07T12:24:44.445Z,5.23
2019-06-07T12:27:14.772Z,5.80
2019-06-07T12:29:44.566Z,25.83
2019-06-07T12:32:15.354Z,5.20
2019-06-07T12:34:45.455Z,7.30
2019-06-07T12:37:19.338Z,6.83
2019-06-07T12:39:47.863Z,4.43
2019-06-07T12:42:18.527Z,4.70
2019-06-07T12:44:48.508Z,3.70
2019-06-07T12:47:18.917Z,6.57
2019-06-07T12:49:51.770Z,4.77
2019-06-07T12:52:22.993Z,5.03
2019-06-07T12:54:53.463Z,2.73
2019-06-07T12:57:24.238Z,4.10
2019-06-07T12:59:54.407Z,4.90
2019-06-07T13:02:25.562Z,2.67
2019-06-07T13:04:56.786Z,4.13
2019-06-07T13:07:28.705Z,1.97
2019-06-07T13:09:58.614Z,3.07
2019-06-07T13:12:29.258Z,2.37
2019-06-07T13:15:01.773Z,2.97
2019-06-07T13:17:31.738Z,2.23
2019-06-07T13:20:02.587Z,5.77
2019-06-07T13:22:33.183Z,3.60
2019-06-07T13:25:03.059Z,3.43
2019-06-07T13:27:34.309Z,2.00
2019-06-07T13:30:10.320Z,2.67
2019-06-07T13:32:38.113Z,4.53
2019-06-07T13:35:08.671Z,4.90
2019-06-07T13:37:38.717Z,6.67
2019-06-07T13:40:08.781Z,3.03
2019-06-07T13:42:38.640Z,4.47
2019-06-07T13:45:09.255Z,2.83
2019-06-07T13:47:41.125Z,2.33
2019-06-07T13:50:10.993Z,4.97
2019-06-07T13:52:42.098Z,1.73
2019-06-07T13:55:12.189Z,3.00
2019-06-07T13:57:44.135Z,2.67
2019-06-07T14:00:14.995Z,2.07
2019-06-07T14:02:44.595Z,2.97
2019-06-07T14:05:15.849Z,3.23
2019-06-07T14:07:46.682Z,1.40
2019-06-07T14:10:17.147Z,3.33
2019-06-07T14:12:49.751Z,2.90
2019-06-07T14:15:20.472Z,4.63
2019-06-07T14:17:52.121Z,4.30
2019-06-07T14:20:26.783Z,3.03
2019-06-07T14:22:58.945Z,3.20
2019-06-07T14:25:31.963Z,2.17
2019-06-07T14:28:09.370Z,2.27
2019-06-07T14:30:35.998Z,2.77
2019-06-07T14:33:06.354Z,2.80
2019-06-07T14:35:42.530Z,2.97
2019-06-07T14:38:13.260Z,2.70
2019-06-07T14:40:45.915Z,3.13
2019-06-07T14:43:27.665Z,5.43
2019-06-07T14:46:00.816Z,3.00
2019-06-07T14:48:30.564Z,3.33
2019-06-07T14:51:03.812Z,3.80
2019-06-07T14:53:39.407Z,3.60
2019-06-07T14:56:10.263Z,4.23
2019-06-07T14:58:43.493Z,3.07
2019-06-07T15:01:22.684Z,2.77
2019-06-07T15:03:53.124Z,3.47
2019-06-07T15:06:24.271Z,3.70
2019-06-07T15:09:01.674Z,3.57
2019-06-07T15:11:43.999Z,5.10
2019-06-07T15:14:16.882Z,1.70
2019-06-07T15:16:48.267Z,3.83
2019-06-07T15:19:24.160Z,3.27
2019-06-07T15:21:56.596Z,3.47
2019-06-07T15:24:26.181Z,2.77
2019-06-07T15:26:55.942Z,2.93
2019-06-07T15:29:25.845Z,2.33
2019-06-07T15:31:55.868Z,1.90
2019-06-07T15:34:25.779Z,3.47
2019-06-07T15:36:56.817Z,1.00
2019-06-07T15:39:28.408Z,5.13
2019-06-07T15:41:58.467Z,1.40
2019-06-07T15:44:29.097Z,1.87
2019-06-07T15:46:58.907Z,2.73
2019-06-07T15:49:30.300Z,3.73
2019-06-07T15:52:00.234Z,1.37
2019-06-07T15:54:30.242Z,3.60
2019-06-07T15:57:01.338Z,2.50
2019-06-07T15:59:31.116Z,1.77
2019-06-07T16:02:00.729Z,3.60
2019-06-07T16:04:31.346Z,2.43
2019-06-07T16:07:04.595Z,3.17
2019-06-07T16:09:34.389Z,6.00
2019-06-07T16:12:04.684Z,2.80
2019-06-07T16:14:35.118Z,4.53
2019-06-07T16:17:05.023Z,4.03
2019-06-07T16:19:39.304Z,4.17
2019-06-07T16:22:06.419Z,2.53
2019-06-07T16:24:37.690Z,3.10
2019-06-07T16:27:07.749Z,3.40
2019-06-07T16:29:38.646Z,3.43
2019-06-07T16:32:08.703Z,3.07
2019-06-07T16:34:39.884Z,3.70
2019-06-07T16:37:11.103Z,3.47
2019-06-07T16:39:40.855Z,4.40
2019-06-07T16:42:10.761Z,3.40
2019-06-07T16:44:40.886Z,3.77
2019-06-07T16:47:10.766Z,4.43
2019-06-07T16:49:42.956Z,2.67
2019-06-07T16:52:13.158Z,2.07
2019-06-07T16:54:43.600Z,3.50
2019-06-07T16:57:14.322Z,4.77
2019-06-07T16:59:47.775Z,3.10
2019-06-07T17:02:15.748Z,2.93
2019-06-07T17:04:45.801Z,5.53
2019-06-07T17:07:15.630Z,3.63
2019-06-07T17:09:47.324Z,5.43
2019-06-07T17:12:17.436Z,5.73
2019-06-07T17:14:48.823Z,7.73
2019-06-07T17:17:18.713Z,4.30
2019-06-07T17:19:49.283Z,3.10
2019-06-07T17:22:19.080Z,2.83
2019-06-07T17:24:49.909Z,4.60
2019-06-07T17:27:19.651Z,3.40
2019-06-07T17:29:51.580Z,2.93
2019-06-07T17:32:21.854Z,4.60
2019-06-07T17:34:52.549Z,2.30
2019-06-07T17:37:25.213Z,2.73
2019-06-07T17:39:55.270Z,4.70
2019-06-07T17:42:25.101Z,4.73
2019-06-07T17:44:57.890Z,3.73
2019-06-07T17:47:29.235Z,3.97
2019-06-07T17:49:59.909Z,4.67
2019-06-07T17:52:29.685Z,3.83
2019-06-07T17:54:59.969Z,4.50
2019-06-07T17:57:30.904Z,2.87
2019-06-07T18:00:27.106Z,2.40
2019-06-07T18:02:32.267Z,3.03
2019-06-07T18:05:02.813Z,3.97
2019-06-07T18:07:33.866Z,2.77
2019-06-07T18:10:05.653Z,3.03
2019-06-07T18:12:35.490Z,4.97
2019-06-07T18:15:16.131Z,5.20
2019-06-07T18:17:48.548Z,3.47
2019-06-07T18:20:27.412Z,4.80
2019-06-07T18:23:00.059Z,5.60
2019-06-07T18:25:30.462Z,2.83
2019-06-07T18:28:04.668Z,4.57
2019-06-07T18:30:36.914Z,3.03
2019-06-07T18:33:10.523Z,3.87
2019-06-07T18:35:43.281Z,3.97
2019-06-07T18:38:16.148Z,4.70
2019-06-07T18:40:47.151Z,4.90
2019-06-07T18:43:18.222Z,6.27
2019-06-07T18:45:51.482Z,5.60
2019-06-07T18:48:25.246Z,6.07
2019-06-07T18:50:59.063Z,2.80
2019-06-07T18:53:37.110Z,3.50
2019-06-07T18:56:09.421Z,9.53
2019-06-07T18:58:40.342Z,5.50
2019-06-07T19:01:13.142Z,3.70
2019-06-07T19:03:42.758Z,4.87
2019-06-07T19:06:13.010Z,4.97
2019-06-07T19:08:48.435Z,4.70
2019-06-07T19:11:21.762Z,4.43
2019-06-07T19:13:52.988Z,3.70
2019-06-07T19:16:25.960Z,5.87
2019-06-07T19:19:03.379Z,6.13
2019-06-07T19:21:35.924Z,8.97
2019-06-07T19:24:06.393Z,5.23
2019-06-07T19:26:37.700Z,4.43
2019-06-07T19:29:07.728Z,11.50
2019-06-07T19:31:38.226Z,4.70
2019-06-07T19:34:08.091Z,4.63
2019-06-07T19:36:51.510Z,2.93
2019-06-07T19:39:24.001Z,4.53
2019-06-07T19:41:54.289Z,4.63
2019-06-07T19:44:25.774Z,3.17
2019-06-07T19:47:00.618Z,9.07
2019-06-07T19:49:30.463Z,3.87
2019-06-07T19:52:07.725Z,4.20
2019-06-07T19:54:41.128Z,5.43
2019-06-07T19:57:12.480Z,5.13
2019-06-07T19:59:45.194Z,4.77
2019-06-07T20:02:20.128Z,3.47
2019-06-07T20:04:51.172Z,4.63
2019-06-07T20:07:21.038Z,2.53
2019-06-07T20:09:52.400Z,4.57
2019-06-07T20:12:24.089Z,3.33
2019-06-07T20:15:17.517Z,2.73
2019-06-07T20:17:31.137Z,3.60
2019-06-07T20:20:02.845Z,2.93
2019-06-07T20:22:32.436Z,3.63
2019-06-07T20:25:03.176Z,5.33
2019-06-07T20:27:33.271Z,6.53
2019-06-07T20:30:04.400Z,4.93
2019-06-07T20:32:34.846Z,6.53
2019-06-07T20:35:06.086Z,8.70
2019-06-07T20:37:37.675Z,4.93
2019-06-07T20:40:22.765Z,6.17
2019-06-07T20:42:43.825Z,3.97
2019-06-07T20:45:15.121Z,2.57
2019-06-07T20:47:47.344Z,4.30
2019-06-07T20:50:17.407Z,2.70
2019-06-07T20:52:48.245Z,11.50
2019-06-07T20:55:19.263Z,4.87
2019-06-07T20:57:50.630Z,2.23
2019-06-07T21:00:22.075Z,3.67
2019-06-07T21:02:54.664Z,5.20
2019-06-07T21:05:24.409Z,3.17
2019-06-07T21:07:54.234Z,5.27
2019-06-07T21:10:26.500Z,2.33
2019-06-07T21:12:59.697Z,6.97
2019-06-07T21:15:31.167Z,3.67
2019-06-07T21:18:08.667Z,5.90
2019-06-07T21:20:36.643Z,6.70
2019-06-07T21:23:07.094Z,3.70
2019-06-07T21:25:41.504Z,3.17
2019-06-07T21:28:14.274Z,3.30
2019-06-07T21:30:44.787Z,4.30
2019-06-07T21:33:15.491Z,4.93
2019-06-07T21:35:45.102Z,4.70
2019-06-07T21:38:20.768Z,5.03
2019-06-07T21:40:57.654Z,4.00
2019-06-07T21:43:28.579Z,5.47
2019-06-07T21:46:05.443Z,6.27
2019-06-07T21:48:38.709Z,4.13
2019-06-07T21:51:12.719Z,5.23
2019-06-07T21:53:45.791Z,5.20
2019-06-07T21:56:17.335Z,4.77
2019-06-07T21:58:47.870Z,5.17
2019-06-07T22:01:37.014Z,3.90
2019-06-07T22:04:09.657Z,5.53
2019-06-07T22:06:44.462Z,4.90
2019-06-07T22:09:21.907Z,3.57
2019-06-07T22:11:55.614Z,4.53
2019-06-07T22:14:32.572Z,3.53
2019-06-07T22:17:04.324Z,8.83
2019-06-07T22:19:54.704Z,5.37
2019-06-07T22:22:32.566Z,5.50
2019-06-07T22:25:03.360Z,5.97
2019-06-07T22:27:36.806Z,7.10
2019-06-07T22:30:12.605Z,9.10
2019-06-07T22:32:45.666Z,19.87
2019-06-07T22:35:17.615Z,16.90
2019-06-07T22:37:52.473Z,18.87
2019-06-07T22:40:24.184Z,13.50
2019-06-07T22:42:54.533Z,13.70
2019-06-07T22:45:34.149Z,8.83
2019-06-07T22:48:05.133Z,7.77
2019-06-07T22:50:36.518Z,9.00
2019-06-07T22:53:07.360Z,7.63
2019-06-07T22:55:43.779Z,4.87
2019-06-07T22:58:18.988Z,4.53
2019-06-07T23:00:50.746Z,5.63
2019-06-07T23:03:23.437Z,4.30
2019-06-07T23:05:53.721Z,7.80
2019-06-07T23:08:24.694Z,8.63
2019-06-07T23:10:56.727Z,4.93
2019-06-07T23:13:29.633Z,6.50
2019-06-07T23:16:01.633Z,7.00
2019-06-07T23:18:32.280Z,5.00
2019-06-07T23:21:02.053Z,6.53
2019-06-07T23:23:32.617Z,3.77
2019-06-07T23:26:02.882Z,4.53
2019-06-07T23:28:33.191Z,5.83
2019-06-07T23:31:04.902Z,5.20
2019-06-07T23:33:35.873Z,6.87
2019-06-07T23:36:07.814Z,5.50
2019-06-07T23:38:43.199Z,6.90
2019-06-07T23:41:15.603Z,5.23
2019-06-07T23:43:50.317Z,4.70
2019-06-07T23:46:21.727Z,7.73
2019-06-07T23:48:52.612Z,5.07
2019-06-07T23:51:24.665Z,4.27
2019-06-07T23:53:57.051Z,4.80
2019-06-07T23:56:29.669Z,5.20
2019-06-07T23:59:01.933Z,4.40
